Time;durP1;ratioP1;P1;durP2;ratioP2;P2;SDS_P1;SDS_P2;PMS_P1;PMS_P2;Temp;Humidity;BMP_temperature;BMP_pressure;BME280_temperature;BME280_humidity;BME280_pressure;Samples;Min_cycle;Max_cycle;Signal;HPM_P1;HPM_P2
2022/10/08 00:01:39;;;;;;;11.65;8.88;;;;;;;14.71;100.00;100658.66;5055079;28;20036;-73
2022/10/08 00:04:04;;;;;;;14.45;9.30;;;;;;;14.70;100.00;100656.28;5054720;28;20060;-72
2022/10/08 00:06:31;;;;;;;10.00;8.10;;;;;;;14.68;100.00;100656.00;5053531;28;20163;-73
2022/10/08 00:09:03;;;;;;;12.82;9.02;;;;;;;14.67;100.00;100651.56;5036634;28;20048;-72
2022/10/08 00:11:31;;;;;;;9.15;8.25;;;;;;;14.65;100.00;100640.56;5054116;28;20520;-74
2022/10/08 00:13:56;;;;;;;10.48;8.60;;;;;;;14.63;100.00;100642.38;5053486;28;20461;-73
2022/10/08 00:16:30;;;;;;;12.55;9.07;;;;;;;14.62;100.00;100632.19;5054609;28;20033;-74
2022/10/08 00:19:01;;;;;;;9.23;8.18;;;;;;;14.57;100.00;100632.91;5053266;28;20087;-73
2022/10/08 00:21:35;;;;;;;10.45;7.75;;;;;;;14.54;100.00;100634.69;5036412;28;20490;-72
2022/10/08 00:24:01;;;;;;;9.30;8.40;;;;;;;14.52;100.00;100634.44;5053117;28;20028;-72
2022/10/08 00:26:28;;;;;;;12.35;9.15;;;;;;;14.48;100.00;100631.00;5053254;28;20121;-73
2022/10/08 00:28:56;;;;;;;14.05;8.55;;;;;;;14.47;100.00;100638.06;5054494;28;20028;-73
2022/10/08 00:31:43;;;;;;;10.38;8.98;;;;;;;14.46;100.00;100635.69;5052939;28;20033;-72
2022/10/08 00:34:11;;;;;;;13.25;8.88;;;;;;;14.43;100.00;100635.41;5054088;28;20461;-73
2022/10/08 00:36:37;;;;;;;8.80;7.95;;;;;;;14.41;100.00;100637.25;5052916;28;20458;-72
2022/10/08 00:39:06;;;;;;;9.57;8.52;;;;;;;14.39;100.00;100632.00;5052943;28;20052;-72
2022/10/08 00:41:34;;;;;;;13.25;9.63;;;;;;;14.33;100.00;100622.53;5052797;28;20035;-72
2022/10/08 00:44:04;;;;;;;9.90;8.57;;;;;;;14.29;100.00;100621.97;5052834;28;20028;-72
2022/10/08 00:46:40;;;;;;;12.55;9.65;;;;;;;14.23;100.00;100620.38;5052583;28;20031;-72
2022/10/08 00:49:11;;;;;;;11.95;8.45;;;;;;;14.14;100.00;100615.59;5052968;28;20059;-73
2022/10/08 00:51:44;;;;;;;13.07;9.00;;;;;;;14.07;100.00;100610.31;5054212;28;20029;-72
2022/10/08 00:54:10;;;;;;;14.30;9.13;;;;;;;14.04;100.00;100602.69;5036022;28;20127;-73
2022/10/08 00:56:37;;;;;;;11.32;9.93;;;;;;;14.02;100.00;100607.41;5052497;28;20043;-71
2022/10/08 00:59:03;;;;;;;12.35;10.18;;;;;;;14.01;100.00;100606.59;5052472;28;20032;-72
2022/10/08 01:01:29;;;;;;;12.45;8.50;;;;;;;13.99;100.00;100595.63;5052498;28;20044;-73
2022/10/08 01:04:02;;;;;;;11.80;9.32;;;;;;;14.05;100.00;100589.91;5052419;28;20102;-72
2022/10/08 01:06:30;;;;;;;11.20;8.57;;;;;;;14.07;100.00;100589.41;5053585;28;20489;-72
2022/10/08 01:08:56;;;;;;;11.82;9.10;;;;;;;14.10;100.00;100594.91;5052427;28;20032;-73
2022/10/08 01:11:50;;;;;;;9.70;8.48;;;;;;;14.14;100.00;100589.72;5053505;28;20397;-73
2022/10/08 01:14:22;;;;;;;14.98;9.13;;;;;;;14.15;100.00;100585.56;5052549;28;20104;-73
2022/10/08 01:16:53;;;;;;;11.27;9.13;;;;;;;14.18;100.00;100583.75;5052324;28;20082;-74
2022/10/08 01:19:40;;;;;;;10.27;8.52;;;;;;;14.21;100.00;100580.63;5053534;28;20523;-74
2022/10/08 01:22:28;;;;;;;12.70;9.30;;;;;;;14.23;100.00;100577.25;5035731;28;20057;-72
2022/10/08 01:27:46;;;;;;;12.70;9.50;;;;;;;14.23;100.00;100574.38;5052193;28;20047;-72
2022/10/08 01:30:16;;;;;;;12.23;8.68;;;;;;;14.25;100.00;100580.41;5051932;28;20099;-73
2022/10/08 01:33:03;;;;;;;12.60;9.05;;;;;;;14.26;100.00;100564.72;5053235;28;20094;-73
2022/10/08 01:35:32;;;;;;;11.38;8.40;;;;;;;14.26;100.00;100564.72;5052013;28;20051;-72
2022/10/08 01:38:05;;;;;;;9.43;8.25;;;;;;;14.27;100.00;100564.22;5035586;28;20032;-72
2022/10/08 01:40:34;;;;;;;13.07;9.02;;;;;;;14.27;100.00;100567.09;5052027;28;20143;-72
2022/10/08 01:43:00;;;;;;;12.80;8.85;;;;;;;14.25;100.00;100566.81;5052049;28;20482;-73
2022/10/08 01:45:31;;;;;;;12.02;9.00;;;;;;;14.22;100.00;100558.44;5053302;28;20029;-72
2022/10/08 01:47:57;;;;;;;9.80;8.80;;;;;;;14.17;100.00;100556.31;5035569;28;20035;-72
2022/10/08 01:50:27;;;;;;;13.35;9.18;;;;;;;14.15;100.00;100559.69;5051960;28;20115;-73
2022/10/08 01:53:03;;;;;;;10.80;8.57;;;;;;;14.13;100.00;100567.25;5051842;28;20068;-73
2022/10/08 01:55:40;;;;;;;8.93;8.00;;;;;;;14.11;100.00;100559.13;5052209;28;20135;-74
2022/10/08 01:58:10;;;;;;;12.20;9.55;;;;;;;14.04;100.00;100548.09;5051781;28;20044;-73
2022/10/08 02:00:37;;;;;;;10.43;9.00;;;;;;;14.05;100.00;100548.91;5052131;28;20044;-72
2022/10/08 02:03:02;;;;;;;14.18;10.32;;;;;;;14.01;100.00;100543.38;5052010;28;20413;-74
2022/10/08 02:05:31;;;;;;;11.93;9.88;;;;;;;14.01;100.00;100546.25;5051695;28;20459;-72
2022/10/08 02:07:57;;;;;;;10.77;9.35;;;;;;;13.95;100.00;100540.47;5035190;28;20481;-72
2022/10/08 02:10:23;;;;;;;10.50;9.07;;;;;;;13.91;100.00;100536.25;5051855;28;20029;-72
2022/10/08 02:12:48;;;;;;;13.43;9.32;;;;;;;13.84;100.00;100540.38;5051874;28;20476;-74
2022/10/08 02:15:17;;;;;;;11.73;9.23;;;;;;;13.82;100.00;100545.88;5035168;28;20021;-73
2022/10/08 02:17:52;;;;;;;13.30;9.75;;;;;;;13.77;100.00;100531.44;5051787;28;20044;-73
2022/10/08 02:20:26;;;;;;;10.90;9.68;;;;;;;13.75;100.00;100536.91;5051669;28;20028;-73
2022/10/08 02:23:09;;;;;;;12.65;10.25;;;;;;;13.71;100.00;100528.53;5052794;28;20504;-72
2022/10/08 02:25:57;;;;;;;11.40;9.13;;;;;;;13.63;100.00;100536.03;5051562;28;20559;-72
2022/10/08 02:28:38;;;;;;;11.80;10.32;;;;;;;13.54;100.00;100536.97;5051607;28;20037;-73
2022/10/08 02:31:08;;;;;;;11.88;10.20;;;;;;;13.42;100.00;100529.56;5051832;28;20434;-72
2022/10/08 02:33:46;;;;;;;15.60;10.65;;;;;;;13.40;100.00;100543.59;5051747;28;20029;-72
2022/10/08 02:36:15;;;;;;;10.20;8.75;;;;;;;13.40;100.00;100543.59;5053104;28;20028;-73
2022/10/08 02:38:46;;;;;;;12.25;9.70;;;;;;;13.40;100.00;100549.34;5052673;28;20434;-72
2022/10/08 02:41:13;;;;;;;14.95;9.15;;;;;;;13.42;100.00;100545.97;5053956;28;20108;-71
2022/10/08 02:43:43;;;;;;;12.68;9.60;;;;;;;13.45;100.00;100553.56;5055368;28;20029;-72
2022/10/08 02:46:15;;;;;;;14.32;10.55;;;;;;;13.47;100.00;100546.03;5038295;28;20047;-72
2022/10/08 02:48:45;;;;;;;13.45;11.10;;;;;;;13.49;100.00;100554.16;5055060;28;20099;-72
2022/10/08 02:51:12;;;;;;;12.43;10.07;;;;;;;13.51;100.00;100551.56;5038276;28;20096;-73
2022/10/08 02:53:39;;;;;;;14.38;10.45;;;;;;;13.57;100.00;100548.75;5054871;28;20021;-72
2022/10/08 02:56:10;;;;;;;12.05;9.75;;;;;;;13.60;100.00;100550.59;5055146;28;20480;-73
2022/10/08 02:58:35;;;;;;;11.90;9.87;;;;;;;13.64;100.00;100549.06;5054930;28;20523;-73
2022/10/08 03:01:18;;;;;;;12.23;9.88;;;;;;;13.70;100.00;100552.00;5054719;28;20025;-73
2022/10/08 03:03:52;;;;;;;13.23;9.57;;;;;;;13.74;100.00;100543.97;5055026;28;20386;-73
2022/10/08 03:06:18;;;;;;;13.55;9.57;;;;;;;13.79;100.00;100546.88;5038185;28;20025;-74
2022/10/08 03:08:47;;;;;;;13.35;10.30;;;;;;;13.81;100.00;100558.63;5038029;28;20131;-73
2022/10/08 03:11:14;;;;;;;12.50;9.95;;;;;;;13.86;100.00;100557.13;5054863;28;20028;-72
2022/10/08 03:13:42;;;;;;;11.20;10.05;;;;;;;13.88;100.00;100540.16;5054607;28;20029;-73
2022/10/08 03:16:10;;;;;;;10.45;9.38;;;;;;;13.90;100.00;100549.03;5054526;28;20017;-72
2022/10/08 03:18:37;;;;;;;11.88;10.15;;;;;;;13.94;100.00;100547.50;5054404;28;20060;-73
2022/10/08 03:21:03;;;;;;;13.80;9.77;;;;;;;13.98;100.00;100553.03;5054575;28;20025;-72
2022/10/08 03:23:29;;;;;;;12.65;10.07;;;;;;;13.99;100.00;100555.38;5037654;28;20060;-73
2022/10/08 03:25:54;;;;;;;14.93;10.10;;;;;;;14.02;100.00;100544.19;5037522;28;20056;-72
2022/10/08 03:28:19;;;;;;;13.15;9.25;;;;;;;14.04;100.00;100542.34;5055467;28;20032;-73
2022/10/08 03:30:46;;;;;;;11.90;9.35;;;;;;;14.07;100.00;100541.34;5055403;28;20028;-73
2022/10/08 03:33:11;;;;;;;12.30;9.40;;;;;;;14.04;100.00;100533.72;5037646;28;20024;-71
2022/10/08 03:35:43;;;;;;;11.65;10.45;;;;;;;14.07;100.00;100538.47;5055334;28;20024;-73
2022/10/08 03:38:08;;;;;;;10.75;9.25;;;;;;;14.07;100.00;100532.72;5054401;28;20123;-73
2022/10/08 03:40:34;;;;;;;13.40;9.10;;;;;;;14.07;100.00;100529.06;5055496;28;20071;-73
2022/10/08 03:42:59;;;;;;;13.13;10.07;;;;;;;14.05;100.00;100525.91;5055385;28;20025;-73
2022/10/08 03:45:24;;;;;;;13.45;9.68;;;;;;;14.07;100.00;100529.84;5053753;28;20028;-73
2022/10/08 03:47:51;;;;;;;13.15;9.82;;;;;;;14.09;100.00;100540.81;5037206;28;20029;-74
2022/10/08 03:50:16;;;;;;;11.85;10.43;;;;;;;14.10;100.00;100525.94;5055423;28;20473;-73
2022/10/08 03:52:42;;;;;;;10.57;9.55;;;;;;;14.10;100.00;100528.81;5054616;28;20039;-73
2022/10/08 03:55:07;;;;;;;12.15;9.70;;;;;;;14.13;100.00;100519.19;5054924;28;20036;-72
2022/10/08 03:57:32;;;;;;;13.23;10.02;;;;;;;14.12;100.00;100520.50;5037035;28;20025;-73
2022/10/08 03:59:58;;;;;;;13.63;9.27;;;;;;;14.15;100.00;100521.53;5053629;28;20047;-72
2022/10/08 04:02:23;;;;;;;16.20;10.00;;;;;;;14.18;100.00;100517.66;5054807;28;20039;-73
2022/10/08 04:04:48;;;;;;;10.82;9.65;;;;;;;14.21;100.00;100517.41;5054590;28;20068;-72
2022/10/08 04:07:14;;;;;;;12.73;9.57;;;;;;;14.22;100.00;100516.09;5053496;28;20112;-73
2022/10/08 04:09:39;;;;;;;14.57;9.63;;;;;;;14.24;100.00;100518.44;5054784;28;20363;-73
2022/10/08 04:12:04;;;;;;;13.13;9.43;;;;;;;14.22;100.00;100515.31;5053414;28;20389;-72
2022/10/08 04:14:30;;;;;;;11.82;10.40;;;;;;;14.25;100.00;100523.69;5054602;28;20082;-72
2022/10/08 04:16:55;;;;;;;11.60;9.80;;;;;;;14.26;100.00;100528.16;5036588;28;20055;-71
2022/10/08 04:19:20;;;;;;;12.85;10.38;;;;;;;14.28;100.00;100530.53;5054475;28;20454;-72
2022/10/08 04:21:46;;;;;;;11.38;9.30;;;;;;;14.28;100.00;100525.53;5053149;28;20025;-72
2022/10/08 04:24:11;;;;;;;15.48;10.13;;;;;;;14.25;100.00;100520.03;5053237;28;20033;-72
2022/10/08 04:26:37;;;;;;;11.48;9.88;;;;;;;14.23;100.00;100528.41;5053005;28;20033;-73
2022/10/08 04:29:02;;;;;;;11.40;9.93;;;;;;;14.22;100.00;100524.72;5054406;28;20493;-73
2022/10/08 04:31:27;;;;;;;21.20;10.88;;;;;;;14.22;100.00;100532.56;5052961;28;20043;-73
2022/10/08 04:33:53;;;;;;;14.88;10.55;;;;;;;14.19;100.00;100519.19;5053228;28;20036;-73
2022/10/08 04:36:23;;;;;;;11.15;9.75;;;;;;;14.15;100.00;100525.19;5054491;28;20063;-72
2022/10/08 04:38:49;;;;;;;11.63;10.43;;;;;;;14.14;100.00;100522.81;5054283;28;20111;-72
2022/10/08 04:41:19;;;;;;;11.73;10.52;;;;;;;14.11;100.00;100526.75;5052990;28;20108;-73
2022/10/08 04:43:45;;;;;;;12.70;10.68;;;;;;;14.07;100.00;100521.22;5052775;28;20055;-74
2022/10/08 04:46:13;;;;;;;12.93;11.38;;;;;;;14.05;100.00;100528.78;5052672;28;20033;-72
2022/10/08 04:48:39;;;;;;;15.07;11.20;;;;;;;14.02;100.00;100521.97;5053009;28;20412;-74
2022/10/08 04:51:05;;;;;;;12.82;10.82;;;;;;;13.98;100.00;100530.06;5036227;28;20028;-73
2022/10/08 04:53:31;;;;;;;12.93;10.80;;;;;;;13.95;100.00;100531.06;5053992;28;20028;-72
2022/10/08 04:55:56;;;;;;;14.88;11.60;;;;;;;13.95;100.00;100528.97;5052554;28;20429;-73
2022/10/08 04:58:24;;;;;;;15.32;11.15;;;;;;;13.96;100.00;100521.94;5053775;28;20461;-73
2022/10/08 05:00:49;;;;;;;17.00;11.52;;;;;;;13.98;100.00;100533.69;5052825;28;20029;-73
2022/10/08 05:03:14;;;;;;;15.45;11.35;;;;;;;13.99;100.00;100520.13;5051786;28;20132;-74
2022/10/08 05:05:41;;;;;;;13.65;10.82;;;;;;;14.03;100.00;100529.31;5052350;28;20087;-73
2022/10/08 05:08:06;;;;;;;15.27;10.98;;;;;;;14.04;100.00;100530.84;5052610;28;20090;-73
2022/10/08 05:10:32;;;;;;;14.57;10.55;;;;;;;14.05;100.00;100528.78;5052339;28;20416;-74
2022/10/08 05:12:58;;;;;;;13.68;10.98;;;;;;;14.05;100.00;100529.56;5035540;28;20024;-75
2022/10/08 05:15:23;;;;;;;15.68;11.70;;;;;;;14.08;100.00;100534.31;5052629;28;20032;-76
2022/10/08 05:17:48;;;;;;;14.52;11.13;;;;;;;14.13;100.00;100527.81;5052553;28;20025;-74
2022/10/08 05:20:14;;;;;;;18.52;11.23;;;;;;;14.13;100.00;100522.06;5052170;28;20492;-74
2022/10/08 05:22:39;;;;;;;14.48;11.82;;;;;;;14.20;100.00;100526.53;5053520;28;20382;-74
2022/10/08 05:25:05;;;;;;;19.95;11.65;;;;;;;14.22;100.00;100530.47;5053214;28;20409;-73
2022/10/08 05:27:30;;;;;;;15.70;11.88;;;;;;;14.24;100.00;100527.06;5052031;28;20390;-75
2022/10/08 05:29:56;;;;;;;19.63;12.02;;;;;;;14.28;100.00;100525.53;5053256;28;20385;-74
2022/10/08 05:32:21;;;;;;;14.48;12.70;;;;;;;14.34;100.00;100525.56;5053540;28;20029;-75
2022/10/08 05:34:46;;;;;;;16.77;11.98;;;;;;;14.38;100.00;100528.97;5053105;28;20028;-74
2022/10/08 05:37:12;;;;;;;17.20;13.20;;;;;;;14.40;100.00;100529.28;5052035;28;20121;-75
2022/10/08 05:39:37;;;;;;;15.48;12.77;;;;;;;14.43;100.00;100537.66;5053291;28;20112;-78
2022/10/08 05:42:02;;;;;;;16.30;12.80;;;;;;;14.44;100.00;100538.44;5053083;28;20091;-77
2022/10/08 05:44:28;;;;;;;21.70;13.63;;;;;;;14.40;100.00;100532.94;5053380;28;20086;-77
2022/10/08 05:46:53;;;;;;;15.95;13.20;;;;;;;14.40;100.00;100535.03;5035298;28;20032;-78
2022/10/08 05:49:20;;;;;;;16.73;12.75;;;;;;;14.37;100.00;100547.56;5052428;28;20052;-77
2022/10/08 05:51:46;;;;;;;17.20;12.18;;;;;;;14.37;100.00;100547.56;5053407;28;20036;-78
2022/10/08 05:54:12;;;;;;;16.63;12.27;;;;;;;14.37;100.00;100536.06;5051921;28;20044;-76
2022/10/08 05:56:37;;;;;;;15.93;12.65;;;;;;;14.48;100.00;100547.59;5051600;28;20462;-75
2022/10/08 05:59:03;;;;;;;19.52;12.45;;;;;;;14.59;100.00;100552.66;5053183;28;20025;-76
2022/10/08 06:01:30;;;;;;;22.17;12.85;;;;;;;14.69;100.00;100543.31;5035230;28;20448;-76
2022/10/08 06:04:01;;;;;;;20.20;12.85;;;;;;;14.82;100.00;100546.50;5051609;28;20462;-77
2022/10/08 06:06:27;;;;;;;22.08;12.77;;;;;;;14.90;100.00;100543.91;5035186;28;20025;-77
2022/10/08 06:08:57;;;;;;;14.45;12.43;;;;;;;14.96;100.00;100538.19;5053054;28;20091;-76
2022/10/08 06:11:23;;;;;;;18.63;12.32;;;;;;;15.02;100.00;100536.88;5052893;28;20482;-76
2022/10/08 06:13:55;;;;;;;18.98;11.95;;;;;;;15.05;100.00;100538.75;5051847;28;20056;-77
2022/10/08 06:16:21;;;;;;;13.45;11.88;;;;;;;15.20;100.00;100538.53;5055611;28;20067;-78
2022/10/08 06:18:46;;;;;;;22.20;12.27;;;;;;;15.34;100.00;100536.72;5056794;28;20055;-76
2022/10/08 06:21:14;;;;;;;16.63;12.57;;;;;;;15.46;100.00;100546.97;5056852;28;20112;-76
2022/10/08 06:23:48;;;;;;;17.60;11.55;;;;;;;15.56;100.00;100542.53;5056468;28;20048;-77
2022/10/08 06:26:14;;;;;;;16.00;13.50;;;;;;;15.64;100.00;100547.25;5055324;28;20033;-76
2022/10/08 06:28:40;;;;;;;17.40;12.15;;;;;;;15.71;100.00;100545.19;5055588;28;20039;-76
2022/10/08 06:31:06;;;;;;;18.88;13.38;;;;;;;15.70;100.00;100541.50;5055150;28;20025;-77
2022/10/08 06:33:33;;;;;;;17.90;12.70;;;;;;;15.73;100.00;100540.44;5055188;28;20029;-75
2022/10/08 06:36:02;;;;;;;19.13;13.40;;;;;;;15.76;100.00;100550.91;5056496;28;20078;-76
2022/10/08 06:38:28;;;;;;;17.52;13.30;;;;;;;15.82;100.00;100554.59;5056187;28;20032;-77
2022/10/08 06:40:56;;;;;;;14.95;12.60;;;;;;;15.92;100.00;100550.16;5054990;28;20032;-77
2022/10/08 06:43:22;;;;;;;15.50;13.10;;;;;;;16.07;100.00;100547.00;5056649;28;20032;-75
2022/10/08 06:45:47;;;;;;;15.82;12.00;;;;;;;16.30;100.00;100544.88;5056310;28;20033;-76
2022/10/08 06:48:13;;;;;;;18.65;12.38;;;;;;;16.54;100.00;100536.44;5054664;28;20044;-78
2022/10/08 06:50:39;;;;;;;13.77;11.15;;;;;;;17.10;100.00;100539.88;5038226;28;20040;-76
2022/10/08 06:53:07;;;;;;;13.85;11.25;;;;;;;18.18;100.00;100536.47;5053410;28;20434;-76
2022/10/08 06:55:33;;;;;;;15.70;11.60;;;;;;;19.31;100.00;100528.84;5054181;28;20079;-77
2022/10/08 06:57:59;;;;;;;17.42;11.82;;;;;;;20.23;100.00;100532.09;5053919;28;20489;-76
2022/10/08 07:00:24;;;;;;;15.25;11.35;;;;;;;20.91;100.00;100529.47;5038092;28;20039;-76
2022/10/08 07:02:50;;;;;;;14.50;11.20;;;;;;;21.33;100.00;100530.41;5055984;28;20036;-77
2022/10/08 07:05:16;;;;;;;16.90;11.57;;;;;;;21.87;96.63;100538.38;5055916;28;20485;-77
2022/10/08 07:07:41;;;;;;;14.95;11.32;;;;;;;22.32;93.66;100540.97;5038016;28;20029;-76
2022/10/08 07:10:07;;;;;;;15.48;11.55;;;;;;;22.55;88.95;100538.22;5054929;28;20111;-78
2022/10/08 07:12:32;;;;;;;13.95;11.05;;;;;;;22.30;85.65;100540.75;5056697;28;20032;-77
2022/10/08 07:14:58;;;;;;;17.25;11.27;;;;;;;21.94;87.06;100534.75;5054556;28;20469;-77
2022/10/08 07:17:27;;;;;;;17.25;11.20;;;;;;;22.03;89.13;100543.00;5036540;28;20029;-78
2022/10/08 07:19:53;;;;;;;15.63;10.93;;;;;;;22.33;87.50;100533.75;5054483;28;20059;-77
2022/10/08 07:22:18;;;;;;;21.13;11.20;;;;;;;22.68;85.24;100533.03;5054097;28;20454;-78
2022/10/08 07:24:43;;;;;;;12.32;10.57;;;;;;;22.79;81.57;100531.94;5035824;28;20366;-78
2022/10/08 07:27:09;;;;;;;14.60;10.65;;;;;;;22.75;81.53;100534.47;5052015;28;20035;-77
2022/10/08 07:29:35;;;;;;;17.70;10.75;;;;;;;22.56;82.26;100533.94;5054657;28;20033;-77
2022/10/08 07:32:00;;;;;;;13.27;9.90;;;;;;;22.40;83.25;100530.13;5054110;28;20029;-78
2022/10/08 07:34:26;;;;;;;15.70;11.75;;;;;;;22.18;83.52;100534.41;5054676;28;20040;-77
2022/10/08 07:36:51;;;;;;;17.50;10.70;;;;;;;21.99;84.74;100537.53;5053552;28;20482;-79
2022/10/08 07:39:20;;;;;;;16.13;10.88;;;;;;;21.98;83.51;100546.81;5053573;28;20025;-78
2022/10/08 07:41:46;;;;;;;18.85;11.30;;;;;;;22.12;84.05;100542.50;5053314;28;20063;-77
2022/10/08 07:44:12;;;;;;;14.05;10.82;;;;;;;22.44;83.67;100543.00;5053536;28;20078;-78
2022/10/08 07:46:42;;;;;;;19.52;11.32;;;;;;;22.72;81.77;100553.06;5053284;28;20051;-79
2022/10/08 07:49:07;;;;;;;17.63;10.63;;;;;;;22.74;78.44;100556.19;5036492;28;20035;-78
2022/10/08 07:51:33;;;;;;;17.05;11.05;;;;;;;22.59;79.38;100553.97;5054571;28;20129;-77
2022/10/08 07:54:00;;;;;;;15.38;11.15;;;;;;;22.43;79.17;100546.47;5053459;28;20064;-78
2022/10/08 07:56:26;;;;;;;18.67;11.30;;;;;;;22.15;80.35;100555.13;5055126;28;20039;-77
2022/10/08 07:58:51;;;;;;;15.43;10.73;;;;;;;21.86;81.88;100552.16;5056435;28;20032;-78
2022/10/08 08:01:19;;;;;;;14.50;10.10;;;;;;;21.67;84.34;100540.72;5055021;28;20115;-77
2022/10/08 08:03:44;;;;;;;14.13;10.27;;;;;;;21.59;85.84;100539.84;5053699;28;20462;-77
2022/10/08 08:06:14;;;;;;;14.57;9.05;;;;;;;21.55;86.55;100524.88;5053729;28;20492;-79
2022/10/08 08:08:41;;;;;;;11.95;10.32;;;;;;;21.68;86.63;100532.78;5032869;28;20445;-78
2022/10/08 08:11:09;;;;;;;14.38;10.10;;;;;;;21.87;86.58;100532.56;5052060;28;20374;-78
2022/10/08 08:13:36;;;;;;;13.75;10.27;;;;;;;21.91;84.69;100536.69;5052299;28;20024;-77
2022/10/08 08:16:05;;;;;;;18.42;9.82;;;;;;;21.93;84.29;100536.88;5054274;28;20029;-78
2022/10/08 08:18:32;;;;;;;17.50;10.05;;;;;;;21.96;83.88;100538.69;5054884;28;20102;-77
2022/10/08 08:21:02;;;;;;;16.65;11.05;;;;;;;21.96;82.32;100544.50;5036617;28;20425;-78
2022/10/08 08:23:33;;;;;;;14.88;10.23;;;;;;;21.97;82.03;100543.16;5053557;28;20029;-77
2022/10/08 08:26:03;;;;;;;16.45;9.70;;;;;;;22.02;83.14;100541.44;5053216;28;20036;-77
2022/10/08 08:28:29;;;;;;;13.05;9.40;;;;;;;22.15;82.37;100547.19;5053288;28;20099;-77
2022/10/08 08:31:08;;;;;;;13.55;9.82;;;;;;;22.15;80.15;100544.28;5053015;28;20475;-78
2022/10/08 08:33:33;;;;;;;20.55;10.10;;;;;;;22.07;80.84;100541.31;5054628;28;20104;-78
2022/10/08 08:35:58;;;;;;;12.85;10.23;;;;;;;22.03;80.68;100543.78;5053997;28;20523;-77
2022/10/08 08:38:24;;;;;;;16.70;10.13;;;;;;;22.08;80.18;100550.78;5053940;28;20032;-76
2022/10/08 08:40:51;;;;;;;15.20;10.07;;;;;;;22.12;80.72;100548.34;5053566;28;20052;-77
2022/10/08 08:43:16;;;;;;;12.95;9.52;;;;;;;22.25;82.98;100539.53;5052915;28;20029;-77
2022/10/08 08:45:42;;;;;;;11.98;9.18;;;;;;;22.48;83.88;100530.97;5053859;28;20032;-77
2022/10/08 08:48:18;;;;;;;13.18;11.13;;;;;;;22.64;81.05;100538.47;5051741;28;20029;-78
2022/10/08 08:50:45;;;;;;;11.93;8.90;;;;;;;22.68;77.84;100533.03;5051200;28;20024;-77
2022/10/08 08:53:10;;;;;;;14.95;9.30;;;;;;;22.60;77.30;100543.09;5051117;28;20033;-77
2022/10/08 08:55:44;;;;;;;14.00;8.88;;;;;;;22.63;77.70;100544.84;5052455;28;20031;-78
2022/10/08 08:58:15;;;;;;;14.18;8.82;;;;;;;22.70;78.04;100535.41;5052259;28;20025;-80
2022/10/08 09:00:44;;;;;;;12.45;9.32;;;;;;;22.80;77.89;100534.31;5054534;28;20056;-80
2022/10/08 09:03:24;;;;;;;14.52;8.00;;;;;;;22.99;75.53;100539.09;5052425;28;20565;-78
2022/10/08 09:05:55;;;;;;;14.68;7.72;;;;;;;23.03;73.63;100545.31;5052711;28;20032;-77
2022/10/08 09:08:34;;;;;;;13.63;7.20;;;;;;;23.10;73.35;100542.47;5052999;28;20521;-77
2022/10/08 09:11:02;;;;;;;8.93;7.13;;;;;;;23.18;72.96;100537.44;5052948;28;20049;-78
2022/10/08 09:13:34;;;;;;;15.43;8.40;;;;;;;23.26;73.68;100537.47;5052110;28;20039;-76
2022/10/08 09:16:00;;;;;;;10.00;7.30;;;;;;;23.26;71.80;100538.22;5052670;28;20350;-77
2022/10/08 09:18:25;;;;;;;11.20;7.95;;;;;;;23.27;72.43;100542.72;5053006;28;20124;-77
2022/10/08 09:20:51;;;;;;;12.07;7.80;;;;;;;23.36;72.89;100545.09;5052398;28;20104;-76
2022/10/08 09:23:21;;;;;;;12.27;8.50;;;;;;;23.42;73.05;100547.03;5052638;28;20033;-76
2022/10/08 09:25:52;;;;;;;11.90;7.43;;;;;;;23.45;72.40;100560.50;5051948;28;20033;-77
2022/10/08 09:28:43;;;;;;;15.77;7.87;;;;;;;23.29;70.10;100563.34;5051613;28;20037;-77
2022/10/08 09:31:29;;;;;;;10.98;7.63;;;;;;;23.16;71.07;100551.78;5050574;28;20112;-76
2022/10/08 09:34:09;;;;;;;12.95;7.95;;;;;;;23.09;71.00;100560.53;5051652;28;20126;-78
2022/10/08 09:36:37;;;;;;;29.00;8.35;;;;;;;22.91;68.26;100566.03;5053465;28;20087;-78
2022/10/08 09:39:05;;;;;;;11.30;7.32;;;;;;;22.77;69.13;100576.22;5052661;28;20031;-78
2022/10/08 09:41:31;;;;;;;12.18;6.93;;;;;;;22.69;70.43;100566.66;5035348;28;20025;-78
2022/10/08 09:44:08;;;;;;;10.88;7.05;;;;;;;22.61;71.37;100560.00;5051878;28;20025;-77
2022/10/08 09:46:34;;;;;;;15.15;7.60;;;;;;;22.42;71.33;100554.41;5053451;28;20025;-76
2022/10/08 09:49:37;;;;;;;14.77;8.13;;;;;;;22.20;71.78;100557.94;5053631;28;20032;-76
2022/10/08 09:52:25;;;;;;;12.65;9.15;;;;;;;22.01;74.04;100551.53;5034620;28;20086;-76
2022/10/08 09:54:55;;;;;;;15.18;9.07;;;;;;;21.98;74.99;100556.34;5044190;28;20041;-76
2022/10/08 09:57:21;;;;;;;14.23;8.50;;;;;;;21.96;75.58;100555.34;5056433;28;20021;-77
2022/10/08 09:59:50;;;;;;;15.45;9.65;;;;;;;21.91;76.64;100553.38;5056048;28;20108;-76
2022/10/08 10:02:36;;;;;;;14.77;9.43;;;;;;;21.81;75.39;100558.91;5055960;28;20020;-76
2022/10/08 10:05:04;;;;;;;18.52;10.27;;;;;;;21.65;77.31;100554.25;5037096;28;20037;-78
2022/10/08 10:07:42;;;;;;;16.33;10.20;;;;;;;21.50;78.44;100557.78;5055610;28;20036;-80
2022/10/08 10:10:26;;;;;;;20.02;10.50;;;;;;;21.37;79.43;100548.28;5038381;28;20032;-79
2022/10/08 10:13:05;;;;;;;11.98;9.82;;;;;;;21.30;80.67;100546.06;5044128;28;20081;-77
2022/10/08 10:15:34;;;;;;;13.65;10.02;;;;;;;21.23;79.49;100548.31;5036986;28;20034;-79
2022/10/08 10:18:37;;;;;;;13.57;9.15;;;;;;;21.06;81.80;100547.91;5052757;28;20096;-80
2022/10/08 10:21:13;;;;;;;15.20;10.02;;;;;;;20.89;83.24;100538.75;5054686;28;20140;-80
2022/10/08 10:23:41;;;;;;;15.93;9.13;;;;;;;21.01;82.97;100548.00;5036537;28;20033;-81
2022/10/08 10:26:10;;;;;;;19.05;10.13;;;;;;;21.13;81.56;100550.13;5036415;28;20045;-80
2022/10/08 10:28:41;;;;;;;12.35;9.70;;;;;;;21.23;82.16;100539.59;5035949;28;20026;-84
2022/10/08 10:31:10;;;;;;;19.17;10.07;;;;;;;21.39;82.00;100540.53;5036771;28;20033;-82
2022/10/08 10:33:40;;;;;;;20.65;9.63;;;;;;;21.56;81.11;100543.09;5035783;28;20035;-78
2022/10/08 10:36:10;;;;;;;16.00;9.50;;;;;;;21.68;80.30;100538.59;5035523;28;20064;-77
2022/10/08 10:38:41;;;;;;;12.70;8.82;;;;;;;21.65;79.17;100539.72;5055320;28;20180;-78
2022/10/08 10:41:27;;;;;;;28.27;10.45;;;;;;;21.57;78.49;100530.13;5038882;28;20055;-78
2022/10/08 10:44:02;;;;;;;13.75;9.60;;;;;;;21.52;79.35;100528.13;5054939;28;20028;-77
2022/10/08 10:47:06;;;;;;;14.20;9.18;;;;;;;21.58;80.09;100534.59;5055844;28;20024;-78
2022/10/08 10:49:35;;;;;;;15.05;9.10;;;;;;;21.66;79.58;100536.25;4982352;28;20050;-81
2022/10/08 10:52:15;;;;;;;15.73;9.23;;;;;;;21.75;78.71;100532.06;4996685;28;20116;-80
2022/10/08 10:55:19;;;;;;;14.13;9.52;;;;;;;21.81;78.66;100526.09;5035213;28;20087;-79
2022/10/08 10:58:07;;;;;;;20.40;9.95;;;;;;;21.81;79.06;100531.91;5054664;28;20086;-78
2022/10/08 11:00:42;;;;;;;18.73;10.38;;;;;;;21.78;79.01;100521.44;5055265;28;20024;-78
2022/10/08 11:03:35;;;;;;;19.70;8.93;;;;;;;21.55;77.64;100527.78;5054325;28;20060;-79
2022/10/08 11:06:27;;;;;;;20.15;9.00;;;;;;;21.15;79.99;100521.25;5054234;28;20481;-78
2022/10/08 11:09:04;;;;;;;12.77;8.55;;;;;;;20.81;81.53;100517.53;5047651;28;20056;-79
2022/10/08 11:11:40;;;;;;;14.80;7.95;;;;;;;20.60;84.13;100505.78;5055497;28;20534;-78
2022/10/08 11:14:15;;;;;;;14.13;8.23;;;;;;;20.56;84.36;100508.22;5055144;28;20091;-80
2022/10/08 11:16:52;;;;;;;13.98;7.72;;;;;;;20.54;84.50;100510.94;5054161;28;20016;-80
2022/10/08 11:19:54;;;;;;;14.38;9.00;;;;;;;20.53;86.43;100491.16;5038366;28;20032;-79
2022/10/08 11:22:28;;;;;;;15.05;8.48;;;;;;;20.64;86.11;100503.34;5055601;28;20017;-81
2022/10/08 11:25:03;;;;;;;11.90;8.90;;;;;;;20.62;87.00;100500.19;5055378;28;20035;-80